Point Pleasant, West Virginia
Current Conditions -  °F | °C
As of 11:55 AM on Saturday 25 Oct 2014 (Local Time) from K3I2 Reporting Station
Overcast Overcast  
Wind Chill: 63°   Ceiling: 8000
Heat Index: 63°   Visibility: 10mi
Dew Point: 48°   Wind: 5mph
Humidity: 59%   Direction: 210°SSW
Pressure: 30.02"   Gusts: NA
Location:  38.84°N, 82.14°W
Report Text: K3I2 251555Z AUTO 21004KT 10SM SCT070 OVC080 17/09 A3002 RMK AO2
Loading
Personal Weather Stations






























Interactive Weather Map
Tropical Storm Tracking
New forecast layout! Learn more

10-Day Weather Forecast

Advertisements
Track Severe Weather on mobile